sensor_id;sensor_type;location;lat;lon;timestamp;pressure;altitude;pressure_sealevel;temperature;humidity
16431;BME280;8325;49.284;7.238;2023-09-19T04:00:31;98466.94;;;14.76;100.00
16431;BME280;8325;49.284;7.238;2023-09-19T04:04:43;98458.22;;;14.68;100.00
16431;BME280;8325;49.284;7.238;2023-09-19T04:08:55;98457.19;;;14.56;100.00
16431;BME280;8325;49.284;7.238;2023-09-19T04:13:08;98470.56;;;14.55;100.00
16431;BME280;8325;49.284;7.238;2023-09-19T04:17:20;98471.56;;;14.54;100.00
16431;BME280;8325;49.284;7.238;2023-09-19T04:21:32;98470.16;;;14.58;100.00
16431;BME280;8325;49.284;7.238;2023-09-19T04:25:43;98475.00;;;14.61;100.00
16431;BME280;8325;49.284;7.238;2023-09-19T04:29:55;98467.75;;;14.63;100.00
16431;BME280;8325;49.284;7.238;2023-09-19T04:34:10;98473.00;;;14.63;100.00
16431;BME280;8325;49.284;7.238;2023-09-19T04:38:22;98470.97;;;14.65;100.00
16431;BME280;8325;49.284;7.238;2023-09-19T04:42:34;98484.31;;;14.70;100.00
16431;BME280;8325;49.284;7.238;2023-09-19T04:46:47;98481.06;;;14.68;100.00
16431;BME280;8325;49.284;7.238;2023-09-19T04:50:59;98477.84;;;14.66;100.00
16431;BME280;8325;49.284;7.238;2023-09-19T04:55:14;98477.63;;;14.61;100.00
16431;BME280;8325;49.284;7.238;2023-09-19T04:59:28;98484.72;;;14.54;100.00
16431;BME280;8325;49.284;7.238;2023-09-19T05:03:40;98490.16;;;14.52;100.00
16431;BME280;8325;49.284;7.238;2023-09-19T05:07:52;98498.41;;;14.49;100.00
16431;BME280;8325;49.284;7.238;2023-09-19T05:12:07;98494.84;;;14.57;100.00
16431;BME280;8325;49.284;7.238;2023-09-19T05:16:21;98503.25;;;14.45;100.00
16431;BME280;8325;49.284;7.238;2023-09-19T05:20:34;98498.59;;;14.34;100.00
16431;BME280;8325;49.284;7.238;2023-09-19T05:24:47;98506.91;;;14.44;100.00
16431;BME280;8325;49.284;7.238;2023-09-19T05:28:59;98520.63;;;14.46;100.00
16431;BME280;8325;49.284;7.238;2023-09-19T05:33:12;98527.94;;;14.44;100.00
16431;BME280;8325;49.284;7.238;2023-09-19T05:37:24;98533.78;;;14.46;100.00
16431;BME280;8325;49.284;7.238;2023-09-19T05:41:37;98530.34;;;14.39;100.00
16431;BME280;8325;49.284;7.238;2023-09-19T05:45:51;98531.97;;;14.47;100.00
16431;BME280;8325;49.284;7.238;2023-09-19T05:50:03;98538.44;;;14.38;100.00
16431;BME280;8325;49.284;7.238;2023-09-19T05:54:16;98532.41;;;14.50;100.00
16431;BME280;8325;49.284;7.238;2023-09-19T05:58:31;98531.81;;;14.62;100.00
16431;BME280;8325;49.284;7.238;2023-09-19T06:02:42;98536.69;;;14.65;100.00
16431;BME280;8325;49.284;7.238;2023-09-19T06:06:56;98550.22;;;14.68;100.00
16431;BME280;8325;49.284;7.238;2023-09-19T06:11:08;98544.56;;;14.65;100.00
16431;BME280;8325;49.284;7.238;2023-09-19T06:15:20;98558.34;;;14.80;100.00
16431;BME280;8325;49.284;7.238;2023-09-19T06:19:35;98561.19;;;14.72;100.00
16431;BME280;8325;49.284;7.238;2023-09-19T06:23:47;98568.66;;;14.75;100.00
16431;BME280;8325;49.284;7.238;2023-09-19T06:27:59;98569.88;;;14.79;100.00
16431;BME280;8325;49.284;7.238;2023-09-19T06:32:10;98566.03;;;14.88;100.00
16431;BME280;8325;49.284;7.238;2023-09-19T06:36:22;98566.03;;;15.02;100.00
16431;BME280;8325;49.284;7.238;2023-09-19T06:40:34;98575.75;;;14.88;100.00
16431;BME280;8325;49.284;7.238;2023-09-19T06:44:46;98587.09;;;15.02;100.00
16431;BME280;8325;49.284;7.238;2023-09-19T06:48:58;98594.16;;;15.08;100.00
16431;BME280;8325;49.284;7.238;2023-09-19T06:53:09;98588.31;;;15.26;100.00
16431;BME280;8325;49.284;7.238;2023-09-19T06:57:21;98597.59;;;15.41;100.00
16431;BME280;8325;49.284;7.238;2023-09-19T07:01:33;98607.13;;;15.56;100.00
16431;BME280;8325;49.284;7.238;2023-09-19T07:05:47;98614.97;;;15.96;100.00
16431;BME280;8325;49.284;7.238;2023-09-19T07:09:59;98630.47;;;16.30;100.00
16431;BME280;8325;49.284;7.238;2023-09-19T07:14:10;98621.25;;;16.46;100.00
16431;BME280;8325;49.284;7.238;2023-09-19T07:18:23;98629.31;;;16.20;100.00
16431;BME280;8325;49.284;7.238;2023-09-19T07:22:34;98641.75;;;16.51;100.00
16431;BME280;8325;49.284;7.238;2023-09-19T07:26:47;98645.38;;;16.50;100.00
16431;BME280;8325;49.284;7.238;2023-09-19T07:31:02;98660.47;;;16.74;100.00
16431;BME280;8325;49.284;7.238;2023-09-19T07:35:14;98668.19;;;16.83;100.00
16431;BME280;8325;49.284;7.238;2023-09-19T07:39:26;98659.41;;;17.20;100.00
16431;BME280;8325;49.284;7.238;2023-09-19T07:43:38;98666.56;;;17.45;100.00
16431;BME280;8325;49.284;7.238;2023-09-19T07:47:52;98667.28;;;17.27;100.00
16431;BME280;8325;49.284;7.238;2023-09-19T07:52:04;98668.75;;;17.48;100.00
16431;BME280;8325;49.284;7.238;2023-09-19T07:56:16;98681.28;;;17.59;100.00
16431;BME280;8325;49.284;7.238;2023-09-19T08:00:29;98678.63;;;17.59;100.00
16431;BME280;8325;49.284;7.238;2023-09-19T08:04:42;98683.72;;;17.86;100.00
16431;BME280;8325;49.284;7.238;2023-09-19T08:08:54;98685.50;;;17.92;100.00
16431;BME280;8325;49.284;7.238;2023-09-19T08:13:06;98694.91;;;18.06;99.95
16431;BME280;8325;49.284;7.238;2023-09-19T08:17:22;98695.25;;;18.10;98.89
16431;BME280;8325;49.284;7.238;2023-09-19T08:21:37;98697.78;;;18.05;95.78
16431;BME280;8325;49.284;7.238;2023-09-19T08:25:48;98692.28;;;18.25;95.61
16431;BME280;8325;49.284;7.238;2023-09-19T08:30:00;98691.66;;;18.41;95.88
16431;BME280;8325;49.284;7.238;2023-09-19T08:34:11;98690.22;;;18.45;93.26
16431;BME280;8325;49.284;7.238;2023-09-19T08:38:23;98694.28;;;18.29;92.08
16431;BME280;8325;49.284;7.238;2023-09-19T08:42:48;98696.31;;;18.46;93.58
16431;BME280;8325;49.284;7.238;2023-09-19T08:47:09;98705.94;;;18.58;93.13
16431;BME280;8325;49.284;7.238;2023-09-19T08:51:42;98708.22;;;18.55;89.00
16431;BME280;8325;49.284;7.238;2023-09-19T08:55:59;98707.19;;;18.37;86.91
16431;BME280;8325;49.284;7.238;2023-09-19T09:05:46;98704.59;;;18.49;91.37
16431;BME280;8325;49.284;7.238;2023-09-19T09:09:58;98707.69;;;18.64;89.59
16431;BME280;8325;49.284;7.238;2023-09-19T09:14:10;98703.00;;;18.85;89.94
16431;BME280;8325;49.284;7.238;2023-09-19T09:18:22;98709.41;;;19.07;88.94
16431;BME280;8325;49.284;7.238;2023-09-19T09:22:34;98715.00;;;18.99;85.74
16431;BME280;8325;49.284;7.238;2023-09-19T09:26:47;98720.97;;;18.95;87.06
16431;BME280;8325;49.284;7.238;2023-09-19T09:31:02;98720.81;;;18.71;85.43
16431;BME280;8325;49.284;7.238;2023-09-19T09:35:21;98709.63;;;18.76;85.07
16431;BME280;8325;49.284;7.238;2023-09-19T09:39:33;98706.97;;;18.76;86.73
16431;BME280;8325;49.284;7.238;2023-09-19T09:43:46;98713.34;;;18.50;84.69
16431;BME280;8325;49.284;7.238;2023-09-19T09:48:00;98714.81;;;18.09;82.50
16431;BME280;8325;49.284;7.238;2023-09-19T09:52:15;98714.97;;;18.14;84.17
16431;BME280;8325;49.284;7.238;2023-09-19T09:56:31;98712.31;;;18.14;83.95
16431;BME280;8325;49.284;7.238;2023-09-19T10:00:56;98705.34;;;18.20;83.90
16431;BME280;8325;49.284;7.238;2023-09-19T10:05:16;98695.19;;;18.35;83.46
16431;BME280;8325;49.284;7.238;2023-09-19T10:09:46;98699.09;;;18.69;82.77
16431;BME280;8325;49.284;7.238;2023-09-19T10:14:02;98697.97;;;18.95;81.18
16431;BME280;8325;49.284;7.238;2023-09-19T10:18:23;98696.25;;;19.01;81.55
16431;BME280;8325;49.284;7.238;2023-09-19T10:22:35;98699.50;;;19.03;81.30
16431;BME280;8325;49.284;7.238;2023-09-19T10:26:48;98696.81;;;18.91;82.28
16431;BME280;8325;49.284;7.238;2023-09-19T10:31:02;98697.47;;;18.68;82.69
16431;BME280;8325;49.284;7.238;2023-09-19T10:35:14;98694.09;;;18.79;83.66
16431;BME280;8325;49.284;7.238;2023-09-19T10:39:30;98684.47;;;18.67;84.38
16431;BME280;8325;49.284;7.238;2023-09-19T10:43:45;98679.47;;;18.77;83.85
16431;BME280;8325;49.284;7.238;2023-09-19T10:48:00;98683.22;;;18.99;84.13
16431;BME280;8325;49.284;7.238;2023-09-19T10:52:18;98675.06;;;19.31;83.91
16431;BME280;8325;49.284;7.238;2023-09-19T10:56:36;98675.19;;;19.48;80.09
16431;BME280;8325;49.284;7.238;2023-09-19T11:00:58;98665.03;;;19.45;77.87
16431;BME280;8325;49.284;7.238;2023-09-19T11:05:23;98665.56;;;19.65;77.59
16431;BME280;8325;49.284;7.238;2023-09-19T11:09:49;98662.41;;;19.45;79.83
16431;BME280;8325;49.284;7.238;2023-09-19T11:14:28;98664.00;;;19.34;79.25
16431;BME280;8325;49.284;7.238;2023-09-19T11:27:24;98636.75;;;19.92;77.64
16431;BME280;8325;49.284;7.238;2023-09-19T11:31:42;98636.72;;;20.16;74.78
16431;BME280;8325;49.284;7.238;2023-09-19T11:36:12;98632.09;;;20.23;72.81
16431;BME280;8325;49.284;7.238;2023-09-19T11:40:27;98613.16;;;20.31;72.32
16431;BME280;8325;49.284;7.238;2023-09-19T11:44:39;98614.16;;;20.54;72.93
16431;BME280;8325;49.284;7.238;2023-09-19T11:48:52;98604.63;;;20.69;72.23
16431;BME280;8325;49.284;7.238;2023-09-19T11:53:05;98600.13;;;20.87;71.98
16431;BME280;8325;49.284;7.238;2023-09-19T11:57:20;98619.72;;;20.98;71.38
16431;BME280;8325;49.284;7.238;2023-09-19T12:01:32;98607.59;;;20.73;68.43
16431;BME280;8325;49.284;7.238;2023-09-19T12:05:47;98615.41;;;20.63;69.43
16431;BME280;8325;49.284;7.238;2023-09-19T12:10:03;98621.72;;;20.62;69.70
16431;BME280;8325;49.284;7.238;2023-09-19T12:14:25;98614.56;;;20.62;70.60
16431;BME280;8325;49.284;7.238;2023-09-19T12:18:37;98632.81;;;20.87;70.93
16431;BME280;8325;49.284;7.238;2023-09-19T12:22:49;98614.56;;;21.08;69.12
16431;BME280;8325;49.284;7.238;2023-09-19T12:27:06;98613.94;;;21.01;70.98
16431;BME280;8325;49.284;7.238;2023-09-19T12:31:18;98607.56;;;20.85;68.82
16431;BME280;8325;49.284;7.238;2023-09-19T12:35:32;98603.78;;;20.98;67.75
16431;BME280;8325;49.284;7.238;2023-09-19T12:39:48;98609.25;;;21.08;69.36
16431;BME280;8325;49.284;7.238;2023-09-19T12:44:05;98592.94;;;21.16;68.71
16431;BME280;8325;49.284;7.238;2023-09-19T12:48:25;98591.72;;;21.07;68.16
16431;BME280;8325;49.284;7.238;2023-09-19T12:52:46;98589.94;;;20.96;68.44
16431;BME280;8325;49.284;7.238;2023-09-19T12:57:01;98593.16;;;20.98;68.04
16431;BME280;8325;49.284;7.238;2023-09-19T13:01:16;98583.09;;;21.00;66.91
16431;BME280;8325;49.284;7.238;2023-09-19T13:05:53;98581.22;;;20.83;67.31
16431;BME280;8325;49.284;7.238;2023-09-19T13:10:06;98557.59;;;20.99;68.21
16431;BME280;8325;49.284;7.238;2023-09-19T13:14:22;98580.44;;;21.00;67.75
16431;BME280;8325;49.284;7.238;2023-09-19T13:18:46;98568.47;;;21.14;68.79
16431;BME280;8325;49.284;7.238;2023-09-19T13:22:58;98578.94;;;21.37;68.72
16431;BME280;8325;49.284;7.238;2023-09-19T13:27:11;98568.94;;;21.45;68.00
16431;BME280;8325;49.284;7.238;2023-09-19T13:31:23;98576.75;;;21.34;69.34
16431;BME280;8325;49.284;7.238;2023-09-19T13:35:36;98563.38;;;21.29;68.43
16431;BME280;8325;49.284;7.238;2023-09-19T13:39:49;98566.22;;;21.40;69.41
16431;BME280;8325;49.284;7.238;2023-09-19T13:44:01;98569.19;;;21.09;69.08
16431;BME280;8325;49.284;7.238;2023-09-19T13:48:13;98557.03;;;21.13;69.08
16431;BME280;8325;49.284;7.238;2023-09-19T13:52:24;98564.44;;;20.95;70.07
16431;BME280;8325;49.284;7.238;2023-09-19T13:56:39;98551.22;;;21.00;70.18
16431;BME280;8325;49.284;7.238;2023-09-19T14:00:51;98547.03;;;20.87;70.43
16431;BME280;8325;49.284;7.238;2023-09-19T14:05:06;98541.41;;;20.83;70.83
16431;BME280;8325;49.284;7.238;2023-09-19T14:09:18;98551.16;;;20.95;70.71
16431;BME280;8325;49.284;7.238;2023-09-19T14:13:31;98533.22;;;21.02;69.21
16431;BME280;8325;49.284;7.238;2023-09-19T14:17:42;98531.06;;;20.82;68.69
16431;BME280;8325;49.284;7.238;2023-09-19T14:21:56;98538.69;;;20.78;68.45
16431;BME280;8325;49.284;7.238;2023-09-19T14:26:08;98539.41;;;20.74;69.81
16431;BME280;8325;49.284;7.238;2023-09-19T14:30:20;98540.63;;;20.66;68.28
16431;BME280;8325;49.284;7.238;2023-09-19T14:34:33;98534.09;;;20.74;68.02
16431;BME280;8325;49.284;7.238;2023-09-19T14:38:44;98532.66;;;20.66;68.21
16431;BME280;8325;49.284;7.238;2023-09-19T14:42:56;98534.09;;;20.57;69.57
16431;BME280;8325;49.284;7.238;2023-09-19T14:47:08;98526.34;;;20.55;69.80
16431;BME280;8325;49.284;7.238;2023-09-19T14:51:19;98528.31;;;20.60;70.36
16431;BME280;8325;49.284;7.238;2023-09-19T14:55:31;98529.25;;;20.71;69.72
16431;BME280;8325;49.284;7.238;2023-09-19T14:59:46;98523.16;;;20.70;70.32
16431;BME280;8325;49.284;7.238;2023-09-19T15:03:58;98521.09;;;20.72;69.90
16431;BME280;8325;49.284;7.238;2023-09-19T15:08:12;98531.91;;;20.71;69.42
16431;BME280;8325;49.284;7.238;2023-09-19T15:12:24;98523.16;;;20.70;70.21
16431;BME280;8325;49.284;7.238;2023-09-19T15:16:36;98504.81;;;21.02;69.65
16431;BME280;8325;49.284;7.238;2023-09-19T15:20:48;98499.53;;;20.85;69.82
16431;BME280;8325;49.284;7.238;2023-09-19T15:25:01;98509.09;;;20.69;70.26
16431;BME280;8325;49.284;7.238;2023-09-19T15:29:13;98512.84;;;20.57;70.81
16431;BME280;8325;49.284;7.238;2023-09-19T15:33:25;98500.28;;;20.52;71.27
16431;BME280;8325;49.284;7.238;2023-09-19T15:37:39;98506.72;;;20.56;71.23
16431;BME280;8325;49.284;7.238;2023-09-19T15:41:51;98508.34;;;20.57;72.53
16431;BME280;8325;49.284;7.238;2023-09-19T15:46:03;98502.97;;;20.69;72.09
16431;BME280;8325;49.284;7.238;2023-09-19T15:50:15;98495.41;;;20.78;71.86
16431;BME280;8325;49.284;7.238;2023-09-19T15:54:27;98491.66;;;20.90;71.98
16431;BME280;8325;49.284;7.238;2023-09-19T15:58:46;98505.31;;;20.82;72.41
16431;BME280;8325;49.284;7.238;2023-09-19T16:02:58;98492.53;;;20.79;72.12
16431;BME280;8325;49.284;7.238;2023-09-19T16:07:10;98490.19;;;20.66;72.40
16431;BME280;8325;49.284;7.238;2023-09-19T16:11:22;98486.69;;;20.49;72.73
16431;BME280;8325;49.284;7.238;2023-09-19T16:15:41;98480.31;;;20.33;72.72
16431;BME280;8325;49.284;7.238;2023-09-19T16:19:53;98493.03;;;20.48;71.77
16431;BME280;8325;49.284;7.238;2023-09-19T16:24:06;98500.00;;;20.37;71.67
16431;BME280;8325;49.284;7.238;2023-09-19T16:28:20;98509.38;;;20.28;72.28
16431;BME280;8325;49.284;7.238;2023-09-19T16:32:33;98490.88;;;20.16;71.46
16431;BME280;8325;49.284;7.238;2023-09-19T16:36:45;98493.09;;;20.07;73.24
16431;BME280;8325;49.284;7.238;2023-09-19T16:40:58;98500.56;;;19.82;72.75
16431;BME280;8325;49.284;7.238;2023-09-19T16:45:10;98483.66;;;19.71;73.88
16431;BME280;8325;49.284;7.238;2023-09-19T16:49:22;98489.41;;;19.56;74.66
16431;BME280;8325;49.284;7.238;2023-09-19T16:53:34;98492.19;;;19.49;75.45
16431;BME280;8325;49.284;7.238;2023-09-19T16:57:47;98493.13;;;19.43;74.52
16431;BME280;8325;49.284;7.238;2023-09-19T17:01:58;98499.22;;;19.32;75.83
16431;BME280;8325;49.284;7.238;2023-09-19T17:06:14;98499.69;;;19.17;76.49
16431;BME280;8325;49.284;7.238;2023-09-19T17:10:30;98502.47;;;19.11;76.71
16431;BME280;8325;49.284;7.238;2023-09-19T17:14:45;98506.94;;;18.98;77.80
16431;BME280;8325;49.284;7.238;2023-09-19T17:18:57;98517.41;;;18.93;77.83
16431;BME280;8325;49.284;7.238;2023-09-19T17:23:09;98516.72;;;18.86;78.19
16431;BME280;8325;49.284;7.238;2023-09-19T17:27:21;98509.00;;;18.73;78.75
16431;BME280;8325;49.284;7.238;2023-09-19T17:31:32;98515.03;;;18.61;79.67
16431;BME280;8325;49.284;7.238;2023-09-19T17:35:44;98514.31;;;18.54;80.37
16431;BME280;8325;49.284;7.238;2023-09-19T17:39:56;98517.72;;;18.43;81.11
16431;BME280;8325;49.284;7.238;2023-09-19T17:44:07;98515.19;;;18.36;80.68
16431;BME280;8325;49.284;7.238;2023-09-19T17:48:23;98526.31;;;18.27;82.02
16431;BME280;8325;49.284;7.238;2023-09-19T17:52:34;98521.31;;;18.18;81.81
16431;BME280;8325;49.284;7.238;2023-09-19T17:56:46;98522.81;;;18.14;83.15
16431;BME280;8325;49.284;7.238;2023-09-19T18:01:06;98533.22;;;18.09;83.03
16431;BME280;8325;49.284;7.238;2023-09-19T18:05:20;98527.22;;;18.02;84.07
16431;BME280;8325;49.284;7.238;2023-09-19T18:09:32;98536.63;;;17.98;84.04
16431;BME280;8325;49.284;7.238;2023-09-19T18:13:46;98534.28;;;17.90;84.36
16431;BME280;8325;49.284;7.238;2023-09-19T18:17:59;98546.91;;;17.88;84.96
16431;BME280;8325;49.284;7.238;2023-09-19T18:22:11;98546.19;;;17.81;85.46
16431;BME280;8325;49.284;7.238;2023-09-19T18:26:23;98555.75;;;17.75;86.15
16431;BME280;8325;49.284;7.238;2023-09-19T18:30:36;98544.91;;;17.65;86.45
16431;BME280;8325;49.284;7.238;2023-09-19T18:34:48;98552.47;;;17.61;86.74
16431;BME280;8325;49.284;7.238;2023-09-19T18:39:00;98554.50;;;17.59;86.60
16431;BME280;8325;49.284;7.238;2023-09-19T18:43:11;98552.50;;;17.55;86.93
16431;BME280;8325;49.284;7.238;2023-09-19T18:47:23;98562.13;;;17.49;87.25
16431;BME280;8325;49.284;7.238;2023-09-19T18:51:39;98565.78;;;17.48;87.26
16431;BME280;8325;49.284;7.238;2023-09-19T18:56:05;98566.66;;;17.42;87.80
16431;BME280;8325;49.284;7.238;2023-09-19T19:00:17;98571.13;;;17.41;87.87
16431;BME280;8325;49.284;7.238;2023-09-19T19:04:36;98564.69;;;17.37;88.01
16431;BME280;8325;49.284;7.238;2023-09-19T19:08:51;98563.28;;;17.35;88.09
16431;BME280;8325;49.284;7.238;2023-09-19T19:13:03;98561.25;;;17.30;88.23
16431;BME280;8325;49.284;7.238;2023-09-19T19:17:15;98559.06;;;17.27;88.93
16431;BME280;8325;49.284;7.238;2023-09-19T19:21:27;98565.22;;;17.21;89.43
16431;BME280;8325;49.284;7.238;2023-09-19T19:25:46;98562.44;;;17.16;89.60
16431;BME280;8325;49.284;7.238;2023-09-19T19:30:01;98562.44;;;17.16;89.77
16431;BME280;8325;49.284;7.238;2023-09-19T19:34:13;98568.50;;;17.16;89.71
16431;BME280;8325;49.284;7.238;2023-09-19T19:38:24;98573.34;;;17.19;90.28
16431;BME280;8325;49.284;7.238;2023-09-19T19:42:37;98565.22;;;17.21;89.95
16431;BME280;8325;49.284;7.238;2023-09-19T19:46:48;98571.53;;;17.20;90.00
16431;BME280;8325;49.284;7.238;2023-09-19T19:51:07;98563.78;;;17.25;89.36
16431;BME280;8325;49.284;7.238;2023-09-19T19:55:19;98559.06;;;17.27;89.32
16431;BME280;8325;49.284;7.238;2023-09-19T19:59:34;98561.94;;;17.25;89.70
16431;BME280;8325;49.284;7.238;2023-09-19T20:03:46;98558.50;;;17.25;89.47
16431;BME280;8325;49.284;7.238;2023-09-19T20:07:58;98565.16;;;17.28;89.54
16431;BME280;8325;49.284;7.238;2023-09-19T20:12:09;98557.88;;;17.23;90.33
16431;BME280;8325;49.284;7.238;2023-09-19T20:16:21;98561.75;;;17.20;90.47
16431;BME280;8325;49.284;7.238;2023-09-19T20:20:33;98564.25;;;17.15;90.80
16431;BME280;8325;49.284;7.238;2023-09-19T20:24:44;98570.13;;;17.17;90.88
16431;BME280;8325;49.284;7.238;2023-09-19T20:28:58;98575.81;;;17.14;90.92
16431;BME280;8325;49.284;7.238;2023-09-19T20:33:11;98575.03;;;17.14;91.27
16431;BME280;8325;49.284;7.238;2023-09-19T20:37:25;98579.50;;;17.13;90.89
16431;BME280;8325;49.284;7.238;2023-09-19T20:41:37;98573.41;;;17.13;91.41
16431;BME280;8325;49.284;7.238;2023-09-19T20:45:49;98574.66;;;17.10;91.51
16431;BME280;8325;49.284;7.238;2023-09-19T20:50:00;98572.44;;;17.07;92.05
16431;BME280;8325;49.284;7.238;2023-09-19T20:54:18;98573.47;;;17.06;92.45
16431;BME280;8325;49.284;7.238;2023-09-19T20:58:30;98564.94;;;17.04;92.37
16431;BME280;8325;49.284;7.238;2023-09-19T21:02:42;98566.41;;;17.00;92.79
16431;BME280;8325;49.284;7.238;2023-09-19T21:06:56;98562.56;;;16.96;93.50
16431;BME280;8325;49.284;7.238;2023-09-19T21:16:28;98556.44;;;17.02;93.09
16431;BME280;8325;49.284;7.238;2023-09-19T21:20:40;98563.78;;;17.00;93.82
16431;BME280;8325;49.284;7.238;2023-09-19T21:24:52;98559.34;;;16.94;94.15
16431;BME280;8325;49.284;7.238;2023-09-19T21:29:05;98561.38;;;16.92;94.42
